sensor_id;sensor_type;location;lat;lon;timestamp;P1;durP1;ratioP1;P2;durP2;ratioP2
67979;SDS011;54760;47.490;19.030;2023-03-11T00:00:13;0.93;;;0.45;;
67979;SDS011;54760;47.490;19.030;2023-03-11T00:02:41;1.00;;;0.40;;
67979;SDS011;54760;47.490;19.030;2023-03-11T00:05:08;0.52;;;0.43;;
67979;SDS011;54760;47.490;19.030;2023-03-11T00:07:36;0.98;;;0.40;;
67979;SDS011;54760;47.490;19.030;2023-03-11T00:10:03;2.47;;;0.50;;
67979;SDS011;54760;47.490;19.030;2023-03-11T00:12:30;0.30;;;0.30;;
67979;SDS011;54760;47.490;19.030;2023-03-11T00:14:55;0.52;;;0.52;;
67979;SDS011;54760;47.490;19.030;2023-03-11T00:17:21;0.40;;;0.40;;
67979;SDS011;54760;47.490;19.030;2023-03-11T00:19:46;0.45;;;0.43;;
67979;SDS011;54760;47.490;19.030;2023-03-11T00:22:11;1.20;;;0.50;;
67979;SDS011;54760;47.490;19.030;2023-03-11T00:24:37;1.17;;;0.50;;
67979;SDS011;54760;47.490;19.030;2023-03-11T00:27:02;1.02;;;0.45;;
67979;SDS011;54760;47.490;19.030;2023-03-11T00:29:28;1.10;;;0.50;;
67979;SDS011;54760;47.490;19.030;2023-03-11T00:31:53;2.12;;;0.60;;
67979;SDS011;54760;47.490;19.030;2023-03-11T00:34:18;0.55;;;0.50;;
67979;SDS011;54760;47.490;19.030;2023-03-11T00:36:44;2.00;;;0.50;;
67979;SDS011;54760;47.490;19.030;2023-03-11T00:39:09;0.55;;;0.45;;
67979;SDS011;54760;47.490;19.030;2023-03-11T00:41:35;0.73;;;0.57;;
67979;SDS011;54760;47.490;19.030;2023-03-11T00:44:00;0.65;;;0.50;;
67979;SDS011;54760;47.490;19.030;2023-03-11T00:46:27;1.52;;;0.40;;
67979;SDS011;54760;47.490;19.030;2023-03-11T00:48:53;0.70;;;0.40;;
67979;SDS011;54760;47.490;19.030;2023-03-11T00:51:19;0.68;;;0.55;;
67979;SDS011;54760;47.490;19.030;2023-03-11T00:53:44;0.80;;;0.50;;
67979;SDS011;54760;47.490;19.030;2023-03-11T00:56:11;0.75;;;0.50;;
67979;SDS011;54760;47.490;19.030;2023-03-11T00:58:39;0.82;;;0.60;;
67979;SDS011;54760;47.490;19.030;2023-03-11T01:01:09;0.43;;;0.40;;
67979;SDS011;54760;47.490;19.030;2023-03-11T01:03:37;0.50;;;0.40;;
67979;SDS011;54760;47.490;19.030;2023-03-11T01:06:03;1.10;;;0.50;;
67979;SDS011;54760;47.490;19.030;2023-03-11T01:08:29;0.73;;;0.50;;
67979;SDS011;54760;47.490;19.030;2023-03-11T01:10:55;1.37;;;0.50;;
67979;SDS011;54760;47.490;19.030;2023-03-11T01:13:22;0.77;;;0.50;;
67979;SDS011;54760;47.490;19.030;2023-03-11T01:15:47;1.50;;;0.57;;
67979;SDS011;54760;47.490;19.030;2023-03-11T01:18:13;0.70;;;0.60;;
67979;SDS011;54760;47.490;19.030;2023-03-11T01:20:39;0.60;;;0.52;;
67979;SDS011;54760;47.490;19.030;2023-03-11T01:23:05;0.65;;;0.60;;
67979;SDS011;54760;47.490;19.030;2023-03-11T01:25:31;1.62;;;0.50;;
67979;SDS011;54760;47.490;19.030;2023-03-11T01:27:57;1.55;;;0.62;;
67979;SDS011;54760;47.490;19.030;2023-03-11T01:30:23;1.00;;;0.60;;
67979;SDS011;54760;47.490;19.030;2023-03-11T01:32:50;0.60;;;0.50;;
67979;SDS011;54760;47.490;19.030;2023-03-11T01:35:17;2.22;;;0.60;;
67979;SDS011;54760;47.490;19.030;2023-03-11T01:37:43;1.95;;;0.68;;
67979;SDS011;54760;47.490;19.030;2023-03-11T01:40:12;0.82;;;0.57;;
67979;SDS011;54760;47.490;19.030;2023-03-11T01:42:42;1.87;;;0.80;;
67979;SDS011;54760;47.490;19.030;2023-03-11T01:47:48;0.98;;;0.50;;
67979;SDS011;54760;47.490;19.030;2023-03-11T01:50:13;1.73;;;0.70;;
67979;SDS011;54760;47.490;19.030;2023-03-11T01:52:39;1.73;;;0.60;;
67979;SDS011;54760;47.490;19.030;2023-03-11T01:55:06;0.60;;;0.45;;
67979;SDS011;54760;47.490;19.030;2023-03-11T01:57:34;1.80;;;0.50;;
67979;SDS011;54760;47.490;19.030;2023-03-11T02:00:03;1.92;;;0.77;;
67979;SDS011;54760;47.490;19.030;2023-03-11T02:02:34;1.73;;;0.98;;
67979;SDS011;54760;47.490;19.030;2023-03-11T02:05:04;1.65;;;0.60;;
67979;SDS011;54760;47.490;19.030;2023-03-11T02:07:30;2.42;;;0.80;;
67979;SDS011;54760;47.490;19.030;2023-03-11T02:09:56;0.85;;;0.60;;
67979;SDS011;54760;47.490;19.030;2023-03-11T02:12:21;1.02;;;0.50;;
67979;SDS011;54760;47.490;19.030;2023-03-11T02:14:50;0.90;;;0.60;;
67979;SDS011;54760;47.490;19.030;2023-03-11T02:17:18;1.50;;;0.68;;
67979;SDS011;54760;47.490;19.030;2023-03-11T02:22:09;1.20;;;0.75;;
67979;SDS011;54760;47.490;19.030;2023-03-11T02:27:22;1.02;;;0.60;;
67979;SDS011;54760;47.490;19.030;2023-03-11T02:29:51;2.40;;;0.82;;
67979;SDS011;54760;47.490;19.030;2023-03-11T02:32:18;1.85;;;0.75;;
67979;SDS011;54760;47.490;19.030;2023-03-11T02:34:44;4.40;;;0.80;;
67979;SDS011;54760;47.490;19.030;2023-03-11T02:37:10;1.40;;;0.70;;
67979;SDS011;54760;47.490;19.030;2023-03-11T02:39:38;2.40;;;0.75;;
67979;SDS011;54760;47.490;19.030;2023-03-11T02:42:06;1.98;;;0.70;;
67979;SDS011;54760;47.490;19.030;2023-03-11T02:44:37;0.80;;;0.62;;
67979;SDS011;54760;47.490;19.030;2023-03-11T02:47:06;1.95;;;0.60;;
67979;SDS011;54760;47.490;19.030;2023-03-11T02:49:31;4.97;;;1.17;;
67979;SDS011;54760;47.490;19.030;2023-03-11T02:51:57;4.25;;;1.08;;
67979;SDS011;54760;47.490;19.030;2023-03-11T02:54:22;1.33;;;0.80;;
67979;SDS011;54760;47.490;19.030;2023-03-11T02:56:48;2.37;;;0.90;;
67979;SDS011;54760;47.490;19.030;2023-03-11T02:59:13;2.42;;;0.95;;
67979;SDS011;54760;47.490;19.030;2023-03-11T03:01:39;1.37;;;0.80;;
67979;SDS011;54760;47.490;19.030;2023-03-11T03:04:04;1.50;;;0.60;;
67979;SDS011;54760;47.490;19.030;2023-03-11T03:06:29;1.58;;;0.73;;
67979;SDS011;54760;47.490;19.030;2023-03-11T03:08:55;2.20;;;0.73;;
67979;SDS011;54760;47.490;19.030;2023-03-11T03:11:21;1.50;;;0.68;;
67979;SDS011;54760;47.490;19.030;2023-03-11T03:13:46;4.18;;;0.90;;
67979;SDS011;54760;47.490;19.030;2023-03-11T03:16:11;1.17;;;0.70;;
67979;SDS011;54760;47.490;19.030;2023-03-11T03:18:37;0.90;;;0.80;;
67979;SDS011;54760;47.490;19.030;2023-03-11T03:21:03;1.67;;;0.77;;
67979;SDS011;54760;47.490;19.030;2023-03-11T03:23:28;1.48;;;0.70;;
67979;SDS011;54760;47.490;19.030;2023-03-11T03:25:58;1.52;;;1.05;;
67979;SDS011;54760;47.490;19.030;2023-03-11T03:28:24;0.90;;;0.60;;
67979;SDS011;54760;47.490;19.030;2023-03-11T03:30:50;5.15;;;0.82;;
67979;SDS011;54760;47.490;19.030;2023-03-11T03:33:15;2.30;;;0.90;;
67979;SDS011;54760;47.490;19.030;2023-03-11T03:35:41;1.50;;;0.68;;
67979;SDS011;54760;47.490;19.030;2023-03-11T03:38:08;1.85;;;0.88;;
67979;SDS011;54760;47.490;19.030;2023-03-11T03:40:34;0.75;;;0.47;;
67979;SDS011;54760;47.490;19.030;2023-03-11T03:42:59;1.80;;;0.65;;
67979;SDS011;54760;47.490;19.030;2023-03-11T03:45:24;1.45;;;0.80;;
67979;SDS011;54760;47.490;19.030;2023-03-11T03:47:50;1.37;;;0.68;;
67979;SDS011;54760;47.490;19.030;2023-03-11T03:50:15;1.58;;;0.80;;
67979;SDS011;54760;47.490;19.030;2023-03-11T03:52:41;2.12;;;0.70;;
67979;SDS011;54760;47.490;19.030;2023-03-11T03:55:07;1.50;;;0.60;;
67979;SDS011;54760;47.490;19.030;2023-03-11T03:57:33;2.90;;;0.70;;
67979;SDS011;54760;47.490;19.030;2023-03-11T03:59:58;1.27;;;0.60;;
67979;SDS011;54760;47.490;19.030;2023-03-11T04:02:23;1.08;;;0.60;;
67979;SDS011;54760;47.490;19.030;2023-03-11T04:04:49;1.02;;;0.57;;
67979;SDS011;54760;47.490;19.030;2023-03-11T04:07:14;0.98;;;0.68;;
67979;SDS011;54760;47.490;19.030;2023-03-11T04:09:40;2.20;;;0.60;;
67979;SDS011;54760;47.490;19.030;2023-03-11T04:12:07;0.50;;;0.40;;
67979;SDS011;54760;47.490;19.030;2023-03-11T04:14:37;1.30;;;0.60;;
67979;SDS011;54760;47.490;19.030;2023-03-11T04:17:03;1.50;;;0.65;;
67979;SDS011;54760;47.490;19.030;2023-03-11T04:19:28;1.58;;;0.80;;
67979;SDS011;54760;47.490;19.030;2023-03-11T04:21:53;1.83;;;0.80;;
67979;SDS011;54760;47.490;19.030;2023-03-11T04:24:19;4.62;;;0.60;;
67979;SDS011;54760;47.490;19.030;2023-03-11T04:26:44;3.10;;;0.70;;
67979;SDS011;54760;47.490;19.030;2023-03-11T04:29:10;1.17;;;0.60;;
67979;SDS011;54760;47.490;19.030;2023-03-11T04:31:35;1.62;;;0.60;;
67979;SDS011;54760;47.490;19.030;2023-03-11T04:34:01;3.12;;;0.60;;
67979;SDS011;54760;47.490;19.030;2023-03-11T04:36:26;1.20;;;0.60;;
67979;SDS011;54760;47.490;19.030;2023-03-11T04:38:51;3.08;;;0.80;;
67979;SDS011;54760;47.490;19.030;2023-03-11T04:41:17;5.87;;;0.90;;
67979;SDS011;54760;47.490;19.030;2023-03-11T04:43:42;4.62;;;0.80;;
67979;SDS011;54760;47.490;19.030;2023-03-11T04:46:08;7.65;;;0.85;;
67979;SDS011;54760;47.490;19.030;2023-03-11T04:48:33;5.10;;;0.70;;
67979;SDS011;54760;47.490;19.030;2023-03-11T04:50:59;9.68;;;1.30;;
67979;SDS011;54760;47.490;19.030;2023-03-11T04:53:24;5.72;;;0.88;;
67979;SDS011;54760;47.490;19.030;2023-03-11T04:55:50;7.85;;;1.12;;
67979;SDS011;54760;47.490;19.030;2023-03-11T04:58:16;24.58;;;2.12;;
67979;SDS011;54760;47.490;19.030;2023-03-11T05:00:41;23.77;;;1.65;;
67979;SDS011;54760;47.490;19.030;2023-03-11T05:03:07;21.85;;;1.77;;
67979;SDS011;54760;47.490;19.030;2023-03-11T05:05:32;19.60;;;1.98;;
67979;SDS011;54760;47.490;19.030;2023-03-11T05:07:58;30.27;;;2.62;;
67979;SDS011;54760;47.490;19.030;2023-03-11T05:10:24;32.65;;;2.28;;
67979;SDS011;54760;47.490;19.030;2023-03-11T05:12:50;34.38;;;2.47;;
67979;SDS011;54760;47.490;19.030;2023-03-11T05:15:15;18.02;;;1.90;;
67979;SDS011;54760;47.490;19.030;2023-03-11T05:17:41;23.25;;;2.28;;
67979;SDS011;54760;47.490;19.030;2023-03-11T05:20:07;20.67;;;2.35;;
67979;SDS011;54760;47.490;19.030;2023-03-11T05:22:33;20.62;;;2.03;;
67979;SDS011;54760;47.490;19.030;2023-03-11T05:24:59;22.50;;;1.85;;
67979;SDS011;54760;47.490;19.030;2023-03-11T05:27:24;13.95;;;1.48;;
67979;SDS011;54760;47.490;19.030;2023-03-11T05:29:50;21.60;;;1.65;;
67979;SDS011;54760;47.490;19.030;2023-03-11T05:32:16;11.70;;;1.20;;
67979;SDS011;54760;47.490;19.030;2023-03-11T05:34:43;13.18;;;1.45;;
67979;SDS011;54760;47.490;19.030;2023-03-11T05:37:09;19.77;;;1.70;;
67979;SDS011;54760;47.490;19.030;2023-03-11T05:39:35;19.85;;;1.80;;
67979;SDS011;54760;47.490;19.030;2023-03-11T05:42:01;22.30;;;1.60;;
67979;SDS011;54760;47.490;19.030;2023-03-11T05:44:30;24.95;;;1.52;;
67979;SDS011;54760;47.490;19.030;2023-03-11T05:46:56;10.48;;;1.35;;
67979;SDS011;54760;47.490;19.030;2023-03-11T05:49:21;31.83;;;2.42;;
67979;SDS011;54760;47.490;19.030;2023-03-11T05:51:48;17.60;;;1.87;;
67979;SDS011;54760;47.490;19.030;2023-03-11T05:54:14;20.08;;;1.12;;
67979;SDS011;54760;47.490;19.030;2023-03-11T05:56:40;17.95;;;1.75;;
67979;SDS011;54760;47.490;19.030;2023-03-11T05:59:07;11.20;;;1.10;;
67979;SDS011;54760;47.490;19.030;2023-03-11T06:01:33;15.43;;;1.17;;
67979;SDS011;54760;47.490;19.030;2023-03-11T06:03:58;10.40;;;1.05;;
67979;SDS011;54760;47.490;19.030;2023-03-11T06:06:24;12.70;;;1.20;;
67979;SDS011;54760;47.490;19.030;2023-03-11T06:08:50;9.48;;;1.35;;
67979;SDS011;54760;47.490;19.030;2023-03-11T06:11:16;4.32;;;1.37;;
67979;SDS011;54760;47.490;19.030;2023-03-11T06:13:42;8.52;;;1.25;;
67979;SDS011;54760;47.490;19.030;2023-03-11T06:16:08;7.12;;;1.02;;
67979;SDS011;54760;47.490;19.030;2023-03-11T06:18:33;13.90;;;1.20;;
67979;SDS011;54760;47.490;19.030;2023-03-11T06:20:59;4.43;;;0.80;;
67979;SDS011;54760;47.490;19.030;2023-03-11T06:23:26;5.65;;;0.90;;
67979;SDS011;54760;47.490;19.030;2023-03-11T06:25:56;4.95;;;1.10;;
67979;SDS011;54760;47.490;19.030;2023-03-11T06:28:26;9.18;;;0.93;;
67979;SDS011;54760;47.490;19.030;2023-03-11T06:30:52;3.53;;;1.10;;
67979;SDS011;54760;47.490;19.030;2023-03-11T06:33:20;3.15;;;1.10;;
67979;SDS011;54760;47.490;19.030;2023-03-11T06:35:54;3.00;;;0.98;;
67979;SDS011;54760;47.490;19.030;2023-03-11T06:38:21;1.62;;;0.90;;
67979;SDS011;54760;47.490;19.030;2023-03-11T06:40:46;5.78;;;0.80;;
67979;SDS011;54760;47.490;19.030;2023-03-11T06:43:12;2.80;;;0.90;;
67979;SDS011;54760;47.490;19.030;2023-03-11T06:45:38;2.58;;;0.75;;
67979;SDS011;54760;47.490;19.030;2023-03-11T06:48:03;1.50;;;0.80;;
67979;SDS011;54760;47.490;19.030;2023-03-11T06:50:29;3.25;;;1.00;;
67979;SDS011;54760;47.490;19.030;2023-03-11T06:52:54;1.48;;;0.70;;
67979;SDS011;54760;47.490;19.030;2023-03-11T06:55:21;2.03;;;0.90;;
67979;SDS011;54760;47.490;19.030;2023-03-11T06:57:46;1.92;;;0.80;;
67979;SDS011;54760;47.490;19.030;2023-03-11T07:00:12;1.02;;;0.80;;
67979;SDS011;54760;47.490;19.030;2023-03-11T07:02:39;4.00;;;0.98;;
67979;SDS011;54760;47.490;19.030;2023-03-11T07:05:05;2.08;;;0.98;;
67979;SDS011;54760;47.490;19.030;2023-03-11T07:07:31;1.77;;;0.75;;
67979;SDS011;54760;47.490;19.030;2023-03-11T07:09:56;1.05;;;0.85;;
67979;SDS011;54760;47.490;19.030;2023-03-11T07:12:22;2.70;;;1.08;;
67979;SDS011;54760;47.490;19.030;2023-03-11T07:14:53;0.85;;;0.60;;
67979;SDS011;54760;47.490;19.030;2023-03-11T07:17:19;1.87;;;0.85;;
67979;SDS011;54760;47.490;19.030;2023-03-11T07:19:45;3.85;;;0.68;;
67979;SDS011;54760;47.490;19.030;2023-03-11T07:22:10;0.88;;;0.65;;
67979;SDS011;54760;47.490;19.030;2023-03-11T07:24:36;1.25;;;0.85;;
67979;SDS011;54760;47.490;19.030;2023-03-11T07:27:01;0.73;;;0.60;;
67979;SDS011;54760;47.490;19.030;2023-03-11T07:29:26;0.77;;;0.70;;
67979;SDS011;54760;47.490;19.030;2023-03-11T07:31:52;2.33;;;0.80;;
67979;SDS011;54760;47.490;19.030;2023-03-11T07:34:17;1.00;;;0.80;;
67979;SDS011;54760;47.490;19.030;2023-03-11T07:36:43;1.12;;;0.70;;
67979;SDS011;54760;47.490;19.030;2023-03-11T07:39:17;2.45;;;0.70;;
67979;SDS011;54760;47.490;19.030;2023-03-11T07:41:43;0.80;;;0.70;;
67979;SDS011;54760;47.490;19.030;2023-03-11T07:44:10;0.52;;;0.50;;
67979;SDS011;54760;47.490;19.030;2023-03-11T07:46:37;3.08;;;0.80;;
67979;SDS011;54760;47.490;19.030;2023-03-11T07:49:02;1.23;;;0.82;;
67979;SDS011;54760;47.490;19.030;2023-03-11T07:51:29;0.73;;;0.60;;
67979;SDS011;54760;47.490;19.030;2023-03-11T07:53:57;1.20;;;0.75;;
67979;SDS011;54760;47.490;19.030;2023-03-11T07:56:24;1.40;;;0.75;;
67979;SDS011;54760;47.490;19.030;2023-03-11T07:58:51;0.82;;;0.70;;
67979;SDS011;54760;47.490;19.030;2023-03-11T08:01:21;1.30;;;0.90;;
67979;SDS011;54760;47.490;19.030;2023-03-11T08:03:48;1.15;;;0.80;;
67979;SDS011;54760;47.490;19.030;2023-03-11T08:06:18;1.25;;;0.80;;
67979;SDS011;54760;47.490;19.030;2023-03-11T08:08:45;0.80;;;0.70;;
67979;SDS011;54760;47.490;19.030;2023-03-11T08:11:11;1.05;;;0.80;;
67979;SDS011;54760;47.490;19.030;2023-03-11T08:13:38;0.75;;;0.70;;
67979;SDS011;54760;47.490;19.030;2023-03-11T08:16:05;0.60;;;0.57;;
67979;SDS011;54760;47.490;19.030;2023-03-11T08:18:31;1.55;;;0.70;;
67979;SDS011;54760;47.490;19.030;2023-03-11T08:20:58;1.12;;;0.80;;
67979;SDS011;54760;47.490;19.030;2023-03-11T08:23:23;9.10;;;1.00;;
67979;SDS011;54760;47.490;19.030;2023-03-11T08:25:49;2.00;;;0.80;;
67979;SDS011;54760;47.490;19.030;2023-03-11T08:28:14;6.43;;;0.88;;
67979;SDS011;54760;47.490;19.030;2023-03-11T08:30:40;1.27;;;0.90;;
67979;SDS011;54760;47.490;19.030;2023-03-11T08:33:06;1.12;;;0.90;;
67979;SDS011;54760;47.490;19.030;2023-03-11T08:35:31;2.35;;;0.70;;
67979;SDS011;54760;47.490;19.030;2023-03-11T08:37:57;1.20;;;0.70;;
67979;SDS011;54760;47.490;19.030;2023-03-11T08:40:22;2.25;;;0.95;;
67979;SDS011;54760;47.490;19.030;2023-03-11T08:42:48;2.05;;;0.85;;
67979;SDS011;54760;47.490;19.030;2023-03-11T08:45:13;2.87;;;1.10;;
67979;SDS011;54760;47.490;19.030;2023-03-11T08:47:39;3.40;;;1.05;;
67979;SDS011;54760;47.490;19.030;2023-03-11T08:50:05;1.60;;;0.90;;
67979;SDS011;54760;47.490;19.030;2023-03-11T08:52:33;4.62;;;0.93;;
67979;SDS011;54760;47.490;19.030;2023-03-11T08:54:58;1.05;;;0.80;;
67979;SDS011;54760;47.490;19.030;2023-03-11T08:57:24;1.70;;;1.00;;
67979;SDS011;54760;47.490;19.030;2023-03-11T08:59:49;1.50;;;0.80;;
67979;SDS011;54760;47.490;19.030;2023-03-11T09:02:14;2.62;;;0.80;;
67979;SDS011;54760;47.490;19.030;2023-03-11T09:04:40;1.67;;;0.70;;
67979;SDS011;54760;47.490;19.030;2023-03-11T09:07:06;1.12;;;0.85;;
67979;SDS011;54760;47.490;19.030;2023-03-11T09:09:31;4.70;;;1.00;;
67979;SDS011;54760;47.490;19.030;2023-03-11T09:11:57;2.72;;;0.90;;
67979;SDS011;54760;47.490;19.030;2023-03-11T09:14:22;1.00;;;0.77;;
67979;SDS011;54760;47.490;19.030;2023-03-11T09:16:47;1.42;;;0.82;;
67979;SDS011;54760;47.490;19.030;2023-03-11T09:19:13;1.20;;;0.82;;
67979;SDS011;54760;47.490;19.030;2023-03-11T09:21:38;1.60;;;0.88;;
67979;SDS011;54760;47.490;19.030;2023-03-11T09:24:04;0.57;;;0.57;;
67979;SDS011;54760;47.490;19.030;2023-03-11T09:26:30;2.25;;;0.90;;
67979;SDS011;54760;47.490;19.030;2023-03-11T09:28:56;0.75;;;0.65;;
67979;SDS011;54760;47.490;19.030;2023-03-11T09:31:21;2.65;;;0.70;;
67979;SDS011;54760;47.490;19.030;2023-03-11T09:33:47;1.27;;;0.73;;
67979;SDS011;54760;47.490;19.030;2023-03-11T09:36:15;1.75;;;0.73;;
67979;SDS011;54760;47.490;19.030;2023-03-11T09:38:42;5.60;;;1.17;;
67979;SDS011;54760;47.490;19.030;2023-03-11T09:43:38;1.73;;;0.80;;
67979;SDS011;54760;47.490;19.030;2023-03-11T09:49:10;3.22;;;1.42;;
67979;SDS011;54760;47.490;19.030;2023-03-11T09:51:42;0.95;;;0.65;;
67979;SDS011;54760;47.490;19.030;2023-03-11T09:54:17;1.00;;;0.75;;
67979;SDS011;54760;47.490;19.030;2023-03-11T09:56:43;0.75;;;0.50;;
67979;SDS011;54760;47.490;19.030;2023-03-11T09:59:20;1.05;;;0.73;;
67979;SDS011;54760;47.490;19.030;2023-03-11T10:01:54;1.15;;;0.52;;
67979;SDS011;54760;47.490;19.030;2023-03-11T10:04:21;1.42;;;0.60;;
67979;SDS011;54760;47.490;19.030;2023-03-11T10:06:51;3.65;;;0.70;;
67979;SDS011;54760;47.490;19.030;2023-03-11T10:11:58;1.10;;;0.88;;
67979;SDS011;54760;47.490;19.030;2023-03-11T10:19:56;0.80;;;0.75;;
67979;SDS011;54760;47.490;19.030;2023-03-11T10:22:26;1.87;;;0.80;;
67979;SDS011;54760;47.490;19.030;2023-03-11T10:25:17;0.45;;;0.45;;
67979;SDS011;54760;47.490;19.030;2023-03-11T10:27:54;2.83;;;0.80;;
67979;SDS011;54760;47.490;19.030;2023-03-11T10:36:03;1.40;;;0.90;;
67979;SDS011;54760;47.490;19.030;2023-03-11T10:38:36;9.75;;;0.85;;
67979;SDS011;54760;47.490;19.030;2023-03-11T10:41:12;3.85;;;0.68;;
67979;SDS011;54760;47.490;19.030;2023-03-11T10:43:44;1.23;;;0.50;;
67979;SDS011;54760;47.490;19.030;2023-03-11T10:46:20;1.23;;;0.60;;
67979;SDS011;54760;47.490;19.030;2023-03-11T10:48:48;3.25;;;0.70;;
67979;SDS011;54760;47.490;19.030;2023-03-11T10:51:22;9.75;;;0.95;;
67979;SDS011;54760;47.490;19.030;2023-03-11T10:53:55;4.45;;;0.70;;
67979;SDS011;54760;47.490;19.030;2023-03-11T10:59:02;7.15;;;1.00;;
67979;SDS011;54760;47.490;19.030;2023-03-11T11:01:29;6.20;;;0.85;;
67979;SDS011;54760;47.490;19.030;2023-03-11T11:03:56;3.08;;;0.88;;
67979;SDS011;54760;47.490;19.030;2023-03-11T11:06:25;10.60;;;1.20;;
67979;SDS011;54760;47.490;19.030;2023-03-11T11:09:34;1.75;;;0.93;;
67979;SDS011;54760;47.490;19.030;2023-03-11T11:17:22;2.67;;;0.82;;
67979;SDS011;54760;47.490;19.030;2023-03-11T11:19:53;1.58;;;0.65;;
67979;SDS011;54760;47.490;19.030;2023-03-11T11:22:21;4.43;;;0.90;;
67979;SDS011;54760;47.490;19.030;2023-03-11T11:24:47;2.20;;;0.70;;
67979;SDS011;54760;47.490;19.030;2023-03-11T11:27:24;3.20;;;0.70;;
67979;SDS011;54760;47.490;19.030;2023-03-11T11:32:27;3.42;;;0.82;;
67979;SDS011;54760;47.490;19.030;2023-03-11T11:35:12;4.05;;;0.80;;
67979;SDS011;54760;47.490;19.030;2023-03-11T11:37:43;6.75;;;1.05;;
67979;SDS011;54760;47.490;19.030;2023-03-11T11:50:51;3.53;;;0.93;;
67979;SDS011;54760;47.490;19.030;2023-03-11T11:56:12;2.90;;;1.48;;
67979;SDS011;54760;47.490;19.030;2023-03-11T11:58:38;1.52;;;0.70;;
67979;SDS011;54760;47.490;19.030;2023-03-11T12:12:15;7.47;;;0.90;;
67979;SDS011;54760;47.490;19.030;2023-03-11T12:17:31;1.30;;;0.90;;
67979;SDS011;54760;47.490;19.030;2023-03-11T12:20:07;5.25;;;1.83;;
67979;SDS011;54760;47.490;19.030;2023-03-11T12:22:54;3.72;;;0.90;;
67979;SDS011;54760;47.490;19.030;2023-03-11T12:25:27;1.87;;;0.70;;
67979;SDS011;54760;47.490;19.030;2023-03-11T12:30:53;2.95;;;0.90;;
67979;SDS011;54760;47.490;19.030;2023-03-11T12:33:39;3.58;;;1.40;;
67979;SDS011;54760;47.490;19.030;2023-03-11T12:36:19;2.65;;;1.00;;
67979;SDS011;54760;47.490;19.030;2023-03-11T12:38:48;2.37;;;0.70;;
67979;SDS011;54760;47.490;19.030;2023-03-11T12:44:03;2.47;;;0.80;;
67979;SDS011;54760;47.490;19.030;2023-03-11T12:49:31;3.90;;;1.20;;
67979;SDS011;54760;47.490;19.030;2023-03-11T12:54:35;1.48;;;0.80;;
67979;SDS011;54760;47.490;19.030;2023-03-11T13:08:24;3.90;;;1.00;;
67979;SDS011;54760;47.490;19.030;2023-03-11T13:10:54;1.17;;;0.80;;
67979;SDS011;54760;47.490;19.030;2023-03-11T13:16:43;2.25;;;1.00;;
67979;SDS011;54760;47.490;19.030;2023-03-11T13:18:44;7.03;;;1.00;;
67979;SDS011;54760;47.490;19.030;2023-03-11T13:26:49;1.33;;;0.80;;
67979;SDS011;54760;47.490;19.030;2023-03-11T13:29:20;2.00;;;1.00;;
67979;SDS011;54760;47.490;19.030;2023-03-11T13:31:53;2.90;;;0.90;;
67979;SDS011;54760;47.490;19.030;2023-03-11T13:37:25;1.08;;;0.77;;
67979;SDS011;54760;47.490;19.030;2023-03-11T13:42:45;4.37;;;1.00;;
67979;SDS011;54760;47.490;19.030;2023-03-11T13:45:21;6.37;;;1.30;;
67979;SDS011;54760;47.490;19.030;2023-03-11T13:47:57;3.42;;;1.12;;
67979;SDS011;54760;47.490;19.030;2023-03-11T13:50:27;6.40;;;1.40;;
67979;SDS011;54760;47.490;19.030;2023-03-11T13:52:56;7.28;;;1.23;;
67979;SDS011;54760;47.490;19.030;2023-03-11T13:55:38;2.55;;;1.00;;
67979;SDS011;54760;47.490;19.030;2023-03-11T13:58:17;9.05;;;1.23;;
67979;SDS011;54760;47.490;19.030;2023-03-11T14:00:48;3.17;;;1.25;;
67979;SDS011;54760;47.490;19.030;2023-03-11T14:03:16;6.05;;;1.87;;
67979;SDS011;54760;47.490;19.030;2023-03-11T14:05:46;9.20;;;1.35;;
67979;SDS011;54760;47.490;19.030;2023-03-11T14:08:36;12.10;;;1.12;;
67979;SDS011;54760;47.490;19.030;2023-03-11T14:16:06;5.18;;;0.95;;
67979;SDS011;54760;47.490;19.030;2023-03-11T14:20:59;3.22;;;1.40;;
67979;SDS011;54760;47.490;19.030;2023-03-11T14:23:32;3.92;;;1.40;;
67979;SDS011;54760;47.490;19.030;2023-03-11T14:26:04;1.95;;;1.10;;
67979;SDS011;54760;47.490;19.030;2023-03-11T14:28:33;2.15;;;1.10;;
67979;SDS011;54760;47.490;19.030;2023-03-11T14:31:02;4.15;;;1.05;;
67979;SDS011;54760;47.490;19.030;2023-03-11T14:33:28;3.03;;;1.40;;
67979;SDS011;54760;47.490;19.030;2023-03-11T14:35:55;4.22;;;1.30;;
67979;SDS011;54760;47.490;19.030;2023-03-11T14:38:22;1.55;;;1.00;;
67979;SDS011;54760;47.490;19.030;2023-03-11T14:40:51;1.70;;;1.30;;
67979;SDS011;54760;47.490;19.030;2023-03-11T14:43:20;1.40;;;1.20;;
67979;SDS011;54760;47.490;19.030;2023-03-11T14:45:46;1.42;;;1.10;;
67979;SDS011;54760;47.490;19.030;2023-03-11T14:48:24;4.60;;;1.40;;
67979;SDS011;54760;47.490;19.030;2023-03-11T14:50:54;1.70;;;1.17;;
67979;SDS011;54760;47.490;19.030;2023-03-11T14:53:24;1.77;;;1.20;;
67979;SDS011;54760;47.490;19.030;2023-03-11T14:55:57;1.98;;;1.40;;
67979;SDS011;54760;47.490;19.030;2023-03-11T14:58:28;1.25;;;0.90;;
67979;SDS011;54760;47.490;19.030;2023-03-11T15:01:12;4.57;;;1.40;;
67979;SDS011;54760;47.490;19.030;2023-03-11T15:06:32;3.17;;;1.05;;
67979;SDS011;54760;47.490;19.030;2023-03-11T15:09:07;2.33;;;1.10;;
67979;SDS011;54760;47.490;19.030;2023-03-11T15:14:18;8.10;;;1.40;;
67979;SDS011;54760;47.490;19.030;2023-03-11T15:16:49;2.35;;;1.40;;
67979;SDS011;54760;47.490;19.030;2023-03-11T15:21:53;1.92;;;1.37;;
67979;SDS011;54760;47.490;19.030;2023-03-11T15:24:26;3.50;;;1.45;;
67979;SDS011;54760;47.490;19.030;2023-03-11T15:29:22;4.00;;;1.55;;
67979;SDS011;54760;47.490;19.030;2023-03-11T15:31:50;2.37;;;1.50;;
67979;SDS011;54760;47.490;19.030;2023-03-11T15:36:44;1.90;;;1.30;;
67979;SDS011;54760;47.490;19.030;2023-03-11T15:39:26;2.75;;;1.52;;
67979;SDS011;54760;47.490;19.030;2023-03-11T15:44:32;2.10;;;1.40;;
67979;SDS011;54760;47.490;19.030;2023-03-11T15:47:18;3.35;;;1.70;;
67979;SDS011;54760;47.490;19.030;2023-03-11T15:49:45;1.85;;;1.37;;
67979;SDS011;54760;47.490;19.030;2023-03-11T15:52:11;7.62;;;1.48;;
67979;SDS011;54760;47.490;19.030;2023-03-11T15:54:38;6.32;;;1.42;;
67979;SDS011;54760;47.490;19.030;2023-03-11T15:57:04;1.60;;;1.08;;
67979;SDS011;54760;47.490;19.030;2023-03-11T15:59:33;3.92;;;1.50;;
67979;SDS011;54760;47.490;19.030;2023-03-11T16:01:59;5.12;;;1.50;;
67979;SDS011;54760;47.490;19.030;2023-03-11T16:04:25;2.20;;;1.48;;
67979;SDS011;54760;47.490;19.030;2023-03-11T16:06:50;3.90;;;1.40;;
67979;SDS011;54760;47.490;19.030;2023-03-11T16:09:17;5.87;;;1.48;;
67979;SDS011;54760;47.490;19.030;2023-03-11T16:11:43;4.20;;;1.50;;
67979;SDS011;54760;47.490;19.030;2023-03-11T16:14:13;1.60;;;1.00;;
67979;SDS011;54760;47.490;19.030;2023-03-11T16:16:41;3.47;;;1.40;;
67979;SDS011;54760;47.490;19.030;2023-03-11T16:19:06;4.40;;;1.35;;
67979;SDS011;54760;47.490;19.030;2023-03-11T16:21:33;4.45;;;1.60;;
67979;SDS011;54760;47.490;19.030;2023-03-11T16:24:03;5.97;;;1.25;;
67979;SDS011;54760;47.490;19.030;2023-03-11T16:26:29;4.93;;;1.33;;
67979;SDS011;54760;47.490;19.030;2023-03-11T16:28:56;4.00;;;1.25;;
67979;SDS011;54760;47.490;19.030;2023-03-11T16:31:22;3.05;;;1.40;;
67979;SDS011;54760;47.490;19.030;2023-03-11T16:33:48;7.82;;;1.45;;
67979;SDS011;54760;47.490;19.030;2023-03-11T16:36:13;4.05;;;1.30;;
67979;SDS011;54760;47.490;19.030;2023-03-11T16:38:43;3.97;;;1.37;;
67979;SDS011;54760;47.490;19.030;2023-03-11T16:41:13;3.62;;;1.25;;